Casablanca, Morocco
Current Conditions -  °F | °C
As of 10:00 PM on Friday 24 Oct 2014 (Local Time) from GMMC Reporting Station
Broken Clouds Broken Clouds  
Wind Chill: 22°   Ceiling: 1600
Heat Index: 22°   Visibility: 5mi
Dew Point: 19°   Wind: 2mph
Humidity: 83%   Direction: 180°S
Pressure: 29.94"   Gusts: NA
Location:  33.6°N, 7.62°W
Report Text: GMMC 242100Z 18002KT 8000 BKN016 22/19 Q1014
Loading
Personal Weather Stations






























Interactive Weather Map
Tropical Storm Tracking
New forecast layout! Learn more

10-Day Weather Forecast

Advertisements
Track Severe Weather on mobile